sensor_id;sensor_type;location;lat;lon;timestamp;temperature;humidity
21267;DHT22;10791;53.108;18.326;2023-10-08T00:01:16;11.20;99.90
21267;DHT22;10791;53.108;18.326;2023-10-08T00:06:21;11.20;99.90
21267;DHT22;10791;53.108;18.326;2023-10-08T00:11:24;11.20;99.90
21267;DHT22;10791;53.108;18.326;2023-10-08T00:16:28;11.10;99.90
21267;DHT22;10791;53.108;18.326;2023-10-08T00:21:31;11.10;99.90
21267;DHT22;10791;53.108;18.326;2023-10-08T00:26:36;11.10;99.90
21267;DHT22;10791;53.108;18.326;2023-10-08T00:31:43;11.10;99.90
21267;DHT22;10791;53.108;18.326;2023-10-08T00:36:52;11.10;99.90
21267;DHT22;10791;53.108;18.326;2023-10-08T00:41:56;11.10;99.90
21267;DHT22;10791;53.108;18.326;2023-10-08T00:47:04;11.00;99.90
21267;DHT22;10791;53.108;18.326;2023-10-08T00:52:11;11.00;99.90
21267;DHT22;10791;53.108;18.326;2023-10-08T00:57:18;11.00;99.90
21267;DHT22;10791;53.108;18.326;2023-10-08T01:02:31;10.90;99.90
21267;DHT22;10791;53.108;18.326;2023-10-08T01:07:52;10.80;99.90
21267;DHT22;10791;53.108;18.326;2023-10-08T01:12:58;10.70;99.90
21267;DHT22;10791;53.108;18.326;2023-10-08T01:18:04;10.70;99.90
21267;DHT22;10791;53.108;18.326;2023-10-08T01:23:10;10.70;99.90
21267;DHT22;10791;53.108;18.326;2023-10-08T01:28:20;10.70;99.90
21267;DHT22;10791;53.108;18.326;2023-10-08T01:33:31;10.60;99.90
21267;DHT22;10791;53.108;18.326;2023-10-08T01:38:35;10.50;99.90
21267;DHT22;10791;53.108;18.326;2023-10-08T01:43:38;10.50;99.90
21267;DHT22;10791;53.108;18.326;2023-10-08T01:48:41;10.40;99.90
21267;DHT22;10791;53.108;18.326;2023-10-08T01:53:48;10.40;99.90
21267;DHT22;10791;53.108;18.326;2023-10-08T01:58:51;10.40;99.90
21267;DHT22;10791;53.108;18.326;2023-10-08T02:03:54;10.30;99.90
21267;DHT22;10791;53.108;18.326;2023-10-08T02:08:57;10.30;99.90
21267;DHT22;10791;53.108;18.326;2023-10-08T02:14:01;10.30;99.90
21267;DHT22;10791;53.108;18.326;2023-10-08T02:19:07;10.20;99.90
21267;DHT22;10791;53.108;18.326;2023-10-08T02:24:14;10.20;99.90
21267;DHT22;10791;53.108;18.326;2023-10-08T02:29:17;10.10;99.90
21267;DHT22;10791;53.108;18.326;2023-10-08T02:34:20;10.10;99.90
21267;DHT22;10791;53.108;18.326;2023-10-08T02:39:23;10.10;99.90
21267;DHT22;10791;53.108;18.326;2023-10-08T02:44:28;10.00;99.90
21267;DHT22;10791;53.108;18.326;2023-10-08T02:49:33;9.90;99.90
21267;DHT22;10791;53.108;18.326;2023-10-08T02:54:37;9.80;99.90
21267;DHT22;10791;53.108;18.326;2023-10-08T02:59:40;9.70;99.90
21267;DHT22;10791;53.108;18.326;2023-10-08T03:04:45;9.50;99.90
21267;DHT22;10791;53.108;18.326;2023-10-08T03:09:49;9.50;99.90
21267;DHT22;10791;53.108;18.326;2023-10-08T03:14:53;9.30;99.90
21267;DHT22;10791;53.108;18.326;2023-10-08T03:20:19;9.20;99.90
21267;DHT22;10791;53.108;18.326;2023-10-08T03:25:40;9.10;99.90
21267;DHT22;10791;53.108;18.326;2023-10-08T03:30:48;9.00;99.90
21267;DHT22;10791;53.108;18.326;2023-10-08T03:35:54;8.90;99.90
21267;DHT22;10791;53.108;18.326;2023-10-08T03:40:58;8.90;99.90
21267;DHT22;10791;53.108;18.326;2023-10-08T03:46:10;8.80;99.90
21267;DHT22;10791;53.108;18.326;2023-10-08T03:51:18;8.70;99.90
21267;DHT22;10791;53.108;18.326;2023-10-08T03:56:28;8.60;99.90
21267;DHT22;10791;53.108;18.326;2023-10-08T04:01:34;8.50;99.90
21267;DHT22;10791;53.108;18.326;2023-10-08T04:06:38;8.40;99.90
21267;DHT22;10791;53.108;18.326;2023-10-08T04:11:41;8.30;99.90
21267;DHT22;10791;53.108;18.326;2023-10-08T04:16:54;8.20;99.90
21267;DHT22;10791;53.108;18.326;2023-10-08T04:21:57;8.10;99.90
21267;DHT22;10791;53.108;18.326;2023-10-08T04:27:00;8.00;99.90
21267;DHT22;10791;53.108;18.326;2023-10-08T04:32:08;7.90;99.90
21267;DHT22;10791;53.108;18.326;2023-10-08T04:37:15;7.70;99.90
21267;DHT22;10791;53.108;18.326;2023-10-08T04:42:23;7.60;99.90
21267;DHT22;10791;53.108;18.326;2023-10-08T04:47:29;7.50;99.90
21267;DHT22;10791;53.108;18.326;2023-10-08T04:52:35;7.30;99.90
21267;DHT22;10791;53.108;18.326;2023-10-08T04:57:48;7.00;99.90
21267;DHT22;10791;53.108;18.326;2023-10-08T05:02:52;6.90;99.90
21267;DHT22;10791;53.108;18.326;2023-10-08T05:07:57;6.80;99.90
21267;DHT22;10791;53.108;18.326;2023-10-08T05:13:03;6.60;99.90
21267;DHT22;10791;53.108;18.326;2023-10-08T05:18:06;6.40;99.90
21267;DHT22;10791;53.108;18.326;2023-10-08T05:23:22;6.30;99.90
21267;DHT22;10791;53.108;18.326;2023-10-08T05:28:28;6.20;99.90
21267;DHT22;10791;53.108;18.326;2023-10-08T05:33:33;6.20;99.90
21267;DHT22;10791;53.108;18.326;2023-10-08T05:38:55;6.10;99.90
21267;DHT22;10791;53.108;18.326;2023-10-08T05:44:07;6.10;99.90
21267;DHT22;10791;53.108;18.326;2023-10-08T05:49:22;6.20;99.90
21267;DHT22;10791;53.108;18.326;2023-10-08T05:54:34;6.20;99.90
21267;DHT22;10791;53.108;18.326;2023-10-08T05:59:38;6.30;99.90
21267;DHT22;10791;53.108;18.326;2023-10-08T06:04:42;6.40;99.90
21267;DHT22;10791;53.108;18.326;2023-10-08T06:09:56;6.50;99.90
21267;DHT22;10791;53.108;18.326;2023-10-08T06:15:25;6.70;99.90
21267;DHT22;10791;53.108;18.326;2023-10-08T06:20:47;6.80;99.90
21267;DHT22;10791;53.108;18.326;2023-10-08T06:25:52;6.90;99.90
21267;DHT22;10791;53.108;18.326;2023-10-08T06:31:03;7.00;99.90
21267;DHT22;10791;53.108;18.326;2023-10-08T06:36:10;7.10;99.90
21267;DHT22;10791;53.108;18.326;2023-10-08T06:41:15;7.30;99.90
21267;DHT22;10791;53.108;18.326;2023-10-08T06:46:41;7.40;99.90
21267;DHT22;10791;53.108;18.326;2023-10-08T06:51:46;7.50;99.90
21267;DHT22;10791;53.108;18.326;2023-10-08T06:56:52;7.70;99.90
21267;DHT22;10791;53.108;18.326;2023-10-08T07:01:57;7.80;99.90
21267;DHT22;10791;53.108;18.326;2023-10-08T07:07:03;8.00;99.90
21267;DHT22;10791;53.108;18.326;2023-10-08T07:12:14;8.20;99.90
21267;DHT22;10791;53.108;18.326;2023-10-08T07:17:19;8.30;99.90
21267;DHT22;10791;53.108;18.326;2023-10-08T07:22:24;8.40;99.90
21267;DHT22;10791;53.108;18.326;2023-10-08T07:27:34;8.60;99.90
21267;DHT22;10791;53.108;18.326;2023-10-08T07:32:41;8.80;99.90
21267;DHT22;10791;53.108;18.326;2023-10-08T07:37:47;9.00;99.90
21267;DHT22;10791;53.108;18.326;2023-10-08T07:42:51;9.10;99.90
21267;DHT22;10791;53.108;18.326;2023-10-08T07:47:58;9.30;99.90
21267;DHT22;10791;53.108;18.326;2023-10-08T07:53:05;9.40;99.90
21267;DHT22;10791;53.108;18.326;2023-10-08T07:58:10;9.60;99.90
21267;DHT22;10791;53.108;18.326;2023-10-08T08:03:16;9.80;99.90
21267;DHT22;10791;53.108;18.326;2023-10-08T08:08:22;9.90;99.60
21267;DHT22;10791;53.108;18.326;2023-10-08T08:13:27;10.10;98.70
21267;DHT22;10791;53.108;18.326;2023-10-08T08:18:33;10.20;98.80
21267;DHT22;10791;53.108;18.326;2023-10-08T08:23:40;10.30;96.60
21267;DHT22;10791;53.108;18.326;2023-10-08T08:28:46;10.40;95.10
21267;DHT22;10791;53.108;18.326;2023-10-08T08:33:53;10.60;95.00
21267;DHT22;10791;53.108;18.326;2023-10-08T08:38:58;10.70;94.90
21267;DHT22;10791;53.108;18.326;2023-10-08T08:44:05;10.80;94.40
21267;DHT22;10791;53.108;18.326;2023-10-08T08:49:14;11.00;94.00
21267;DHT22;10791;53.108;18.326;2023-10-08T09:00:19;11.20;94.20
21267;DHT22;10791;53.108;18.326;2023-10-08T09:05:23;11.40;93.20
21267;DHT22;10791;53.108;18.326;2023-10-08T09:10:31;11.50;94.00
21267;DHT22;10791;53.108;18.326;2023-10-08T09:15:40;11.70;90.90
21267;DHT22;10791;53.108;18.326;2023-10-08T09:20:44;11.80;90.50
21267;DHT22;10791;53.108;18.326;2023-10-08T09:25:50;11.90;89.80
21267;DHT22;10791;53.108;18.326;2023-10-08T09:30:56;12.00;90.70
21267;DHT22;10791;53.108;18.326;2023-10-08T09:36:01;12.10;86.20
21267;DHT22;10791;53.108;18.326;2023-10-08T09:41:12;12.10;84.20
21267;DHT22;10791;53.108;18.326;2023-10-08T09:46:19;12.20;82.30
21267;DHT22;10791;53.108;18.326;2023-10-08T09:51:24;12.30;80.10
21267;DHT22;10791;53.108;18.326;2023-10-08T09:56:30;12.40;82.10
21267;DHT22;10791;53.108;18.326;2023-10-08T10:01:37;12.50;77.90
21267;DHT22;10791;53.108;18.326;2023-10-08T10:06:44;12.60;77.90
21267;DHT22;10791;53.108;18.326;2023-10-08T10:11:49;12.80;76.10
21267;DHT22;10791;53.108;18.326;2023-10-08T10:17:22;12.90;75.80
21267;DHT22;10791;53.108;18.326;2023-10-08T10:22:45;13.00;76.50
21267;DHT22;10791;53.108;18.326;2023-10-08T10:33:00;13.20;78.10
21267;DHT22;10791;53.108;18.326;2023-10-08T10:38:06;13.30;74.60
21267;DHT22;10791;53.108;18.326;2023-10-08T10:43:11;13.40;72.00
21267;DHT22;10791;53.108;18.326;2023-10-08T10:48:20;13.40;70.50
21267;DHT22;10791;53.108;18.326;2023-10-08T10:53:25;13.20;71.10
21267;DHT22;10791;53.108;18.326;2023-10-08T10:58:32;13.30;71.70
21267;DHT22;10791;53.108;18.326;2023-10-08T11:03:44;13.40;66.90
21267;DHT22;10791;53.108;18.326;2023-10-08T11:08:54;13.70;65.90
21267;DHT22;10791;53.108;18.326;2023-10-08T11:14:00;13.80;65.20
21267;DHT22;10791;53.108;18.326;2023-10-08T11:19:08;13.90;62.90
21267;DHT22;10791;53.108;18.326;2023-10-08T11:24:14;14.00;61.50
21267;DHT22;10791;53.108;18.326;2023-10-08T11:29:29;14.00;61.00
21267;DHT22;10791;53.108;18.326;2023-10-08T11:34:37;14.20;59.00
21267;DHT22;10791;53.108;18.326;2023-10-08T11:39:43;14.20;59.20
21267;DHT22;10791;53.108;18.326;2023-10-08T11:44:50;14.30;59.70
21267;DHT22;10791;53.108;18.326;2023-10-08T11:49:58;14.20;56.30
21267;DHT22;10791;53.108;18.326;2023-10-08T11:55:15;14.10;52.90
21267;DHT22;10791;53.108;18.326;2023-10-08T12:00:24;14.10;55.80
21267;DHT22;10791;53.108;18.326;2023-10-08T12:05:35;14.20;56.90
21267;DHT22;10791;53.108;18.326;2023-10-08T12:10:40;14.40;56.10
21267;DHT22;10791;53.108;18.326;2023-10-08T12:15:45;14.50;57.10
21267;DHT22;10791;53.108;18.326;2023-10-08T12:20:52;14.50;56.40
21267;DHT22;10791;53.108;18.326;2023-10-08T12:25:59;14.50;54.80
21267;DHT22;10791;53.108;18.326;2023-10-08T12:31:08;14.30;53.00
21267;DHT22;10791;53.108;18.326;2023-10-08T12:36:15;14.30;55.20
21267;DHT22;10791;53.108;18.326;2023-10-08T12:41:20;14.30;53.00
21267;DHT22;10791;53.108;18.326;2023-10-08T12:46:25;14.40;52.70
21267;DHT22;10791;53.108;18.326;2023-10-08T12:51:35;14.40;52.10
21267;DHT22;10791;53.108;18.326;2023-10-08T12:56:46;14.50;53.40
21267;DHT22;10791;53.108;18.326;2023-10-08T13:01:53;14.30;50.90
21267;DHT22;10791;53.108;18.326;2023-10-08T13:07:02;14.20;50.20
21267;DHT22;10791;53.108;18.326;2023-10-08T13:12:07;14.20;51.30
21267;DHT22;10791;53.108;18.326;2023-10-08T13:17:15;14.20;52.40
21267;DHT22;10791;53.108;18.326;2023-10-08T13:22:21;14.20;51.20
21267;DHT22;10791;53.108;18.326;2023-10-08T13:27:29;14.10;52.90
21267;DHT22;10791;53.108;18.326;2023-10-08T13:32:36;14.10;53.40
21267;DHT22;10791;53.108;18.326;2023-10-08T13:37:42;14.30;54.00
21267;DHT22;10791;53.108;18.326;2023-10-08T13:42:47;14.40;54.00
21267;DHT22;10791;53.108;18.326;2023-10-08T13:47:53;14.40;53.70
21267;DHT22;10791;53.108;18.326;2023-10-08T13:53:01;14.40;54.30
21267;DHT22;10791;53.108;18.326;2023-10-08T13:58:07;14.50;53.10
21267;DHT22;10791;53.108;18.326;2023-10-08T14:03:15;14.40;54.40
21267;DHT22;10791;53.108;18.326;2023-10-08T14:08:26;14.50;52.80
21267;DHT22;10791;53.108;18.326;2023-10-08T14:13:34;14.50;52.10
21267;DHT22;10791;53.108;18.326;2023-10-08T14:18:41;14.50;50.80
21267;DHT22;10791;53.108;18.326;2023-10-08T14:23:49;14.40;51.70
21267;DHT22;10791;53.108;18.326;2023-10-08T14:28:57;14.10;51.20
21267;DHT22;10791;53.108;18.326;2023-10-08T14:34:04;14.00;52.00
21267;DHT22;10791;53.108;18.326;2023-10-08T14:39:21;13.90;54.40
21267;DHT22;10791;53.108;18.326;2023-10-08T14:44:44;13.80;54.30
21267;DHT22;10791;53.108;18.326;2023-10-08T14:49:51;13.80;53.00
21267;DHT22;10791;53.108;18.326;2023-10-08T14:54:57;13.60;54.00
21267;DHT22;10791;53.108;18.326;2023-10-08T15:00:05;13.30;53.40
21267;DHT22;10791;53.108;18.326;2023-10-08T15:05:13;13.10;53.10
21267;DHT22;10791;53.108;18.326;2023-10-08T15:10:19;13.00;53.60
21267;DHT22;10791;53.108;18.326;2023-10-08T15:15:26;12.90;54.40
21267;DHT22;10791;53.108;18.326;2023-10-08T15:20:40;12.60;54.90
21267;DHT22;10791;53.108;18.326;2023-10-08T15:25:46;12.20;56.40
21267;DHT22;10791;53.108;18.326;2023-10-08T15:30:52;11.90;57.90
21267;DHT22;10791;53.108;18.326;2023-10-08T15:35:59;11.70;58.90
21267;DHT22;10791;53.108;18.326;2023-10-08T15:41:07;11.40;59.90
21267;DHT22;10791;53.108;18.326;2023-10-08T15:46:11;11.20;59.90
21267;DHT22;10791;53.108;18.326;2023-10-08T15:51:18;11.00;60.10
21267;DHT22;10791;53.108;18.326;2023-10-08T15:56:24;10.80;61.40
21267;DHT22;10791;53.108;18.326;2023-10-08T16:01:31;10.70;62.80
21267;DHT22;10791;53.108;18.326;2023-10-08T16:06:37;10.50;63.00
21267;DHT22;10791;53.108;18.326;2023-10-08T16:11:43;10.30;64.60
21267;DHT22;10791;53.108;18.326;2023-10-08T16:16:51;10.10;64.90
21267;DHT22;10791;53.108;18.326;2023-10-08T16:21:57;10.00;67.10
21267;DHT22;10791;53.108;18.326;2023-10-08T16:27:05;9.80;68.20
21267;DHT22;10791;53.108;18.326;2023-10-08T16:32:11;9.50;70.00
21267;DHT22;10791;53.108;18.326;2023-10-08T16:37:20;9.20;70.90
21267;DHT22;10791;53.108;18.326;2023-10-08T16:42:27;9.00;71.90
21267;DHT22;10791;53.108;18.326;2023-10-08T16:47:33;8.90;72.30
21267;DHT22;10791;53.108;18.326;2023-10-08T16:52:39;8.80;73.00
21267;DHT22;10791;53.108;18.326;2023-10-08T16:57:46;8.60;74.30
21267;DHT22;10791;53.108;18.326;2023-10-08T17:02:53;8.60;75.80
21267;DHT22;10791;53.108;18.326;2023-10-08T17:08:00;8.40;76.80
21267;DHT22;10791;53.108;18.326;2023-10-08T17:13:07;8.30;77.50
21267;DHT22;10791;53.108;18.326;2023-10-08T17:18:27;8.20;78.20
21267;DHT22;10791;53.108;18.326;2023-10-08T17:23:35;8.10;78.70
21267;DHT22;10791;53.108;18.326;2023-10-08T17:28:43;8.10;79.00
21267;DHT22;10791;53.108;18.326;2023-10-08T17:33:48;7.90;80.60
21267;DHT22;10791;53.108;18.326;2023-10-08T17:38:56;7.80;82.50
21267;DHT22;10791;53.108;18.326;2023-10-08T17:44:06;7.60;83.90
21267;DHT22;10791;53.108;18.326;2023-10-08T17:49:17;7.50;85.10
21267;DHT22;10791;53.108;18.326;2023-10-08T17:54:27;7.40;86.60
21267;DHT22;10791;53.108;18.326;2023-10-08T17:59:37;7.30;88.10
21267;DHT22;10791;53.108;18.326;2023-10-08T18:04:48;7.20;90.00
21267;DHT22;10791;53.108;18.326;2023-10-08T18:09:54;7.00;90.60
21267;DHT22;10791;53.108;18.326;2023-10-08T18:15:04;6.80;91.60
21267;DHT22;10791;53.108;18.326;2023-10-08T18:20:14;6.70;92.60
21267;DHT22;10791;53.108;18.326;2023-10-08T18:25:40;6.60;93.40
21267;DHT22;10791;53.108;18.326;2023-10-08T18:30:45;6.40;94.90
21267;DHT22;10791;53.108;18.326;2023-10-08T18:36:12;6.20;96.60
21267;DHT22;10791;53.108;18.326;2023-10-08T18:41:17;6.00;97.60
21267;DHT22;10791;53.108;18.326;2023-10-08T18:46:22;5.90;99.30
21267;DHT22;10791;53.108;18.326;2023-10-08T18:51:27;5.80;99.90
21267;DHT22;10791;53.108;18.326;2023-10-08T18:56:33;5.70;99.90
21267;DHT22;10791;53.108;18.326;2023-10-08T19:01:42;5.60;99.90
21267;DHT22;10791;53.108;18.326;2023-10-08T19:06:48;5.40;99.90
21267;DHT22;10791;53.108;18.326;2023-10-08T19:11:53;5.30;99.90
21267;DHT22;10791;53.108;18.326;2023-10-08T19:17:00;5.20;99.90
21267;DHT22;10791;53.108;18.326;2023-10-08T19:22:06;5.10;99.90
21267;DHT22;10791;53.108;18.326;2023-10-08T19:27:12;5.10;99.90
21267;DHT22;10791;53.108;18.326;2023-10-08T19:32:17;5.00;99.90
21267;DHT22;10791;53.108;18.326;2023-10-08T19:37:22;4.90;99.90
21267;DHT22;10791;53.108;18.326;2023-10-08T19:42:29;4.80;99.90
21267;DHT22;10791;53.108;18.326;2023-10-08T19:47:35;4.70;99.90
21267;DHT22;10791;53.108;18.326;2023-10-08T19:52:45;4.60;99.90
21267;DHT22;10791;53.108;18.326;2023-10-08T19:57:52;4.50;99.90
21267;DHT22;10791;53.108;18.326;2023-10-08T20:02:57;4.30;99.90
21267;DHT22;10791;53.108;18.326;2023-10-08T20:08:04;4.10;99.90
21267;DHT22;10791;53.108;18.326;2023-10-08T20:13:11;4.00;99.90
21267;DHT22;10791;53.108;18.326;2023-10-08T20:18:15;3.90;99.90
21267;DHT22;10791;53.108;18.326;2023-10-08T20:23:20;3.80;99.90
21267;DHT22;10791;53.108;18.326;2023-10-08T20:28:27;3.80;99.90
21267;DHT22;10791;53.108;18.326;2023-10-08T20:33:31;3.70;99.90
21267;DHT22;10791;53.108;18.326;2023-10-08T20:38:34;3.70;99.90
21267;DHT22;10791;53.108;18.326;2023-10-08T20:43:38;3.70;99.90
21267;DHT22;10791;53.108;18.326;2023-10-08T20:48:48;3.70;99.90
21267;DHT22;10791;53.108;18.326;2023-10-08T20:53:59;3.50;99.90
21267;DHT22;10791;53.108;18.326;2023-10-08T20:59:08;3.40;99.90
21267;DHT22;10791;53.108;18.326;2023-10-08T21:04:20;3.30;99.90
21267;DHT22;10791;53.108;18.326;2023-10-08T21:09:35;3.20;99.90
21267;DHT22;10791;53.108;18.326;2023-10-08T21:14:41;3.20;99.90
21267;DHT22;10791;53.108;18.326;2023-10-08T21:19:45;3.20;99.90
21267;DHT22;10791;53.108;18.326;2023-10-08T21:24:48;3.20;99.90
21267;DHT22;10791;53.108;18.326;2023-10-08T21:29:52;3.20;99.90
21267;DHT22;10791;53.108;18.326;2023-10-08T21:34:57;3.00;99.90
21267;DHT22;10791;53.108;18.326;2023-10-08T21:40:01;2.90;99.90
21267;DHT22;10791;53.108;18.326;2023-10-08T21:45:12;2.80;99.90
21267;DHT22;10791;53.108;18.326;2023-10-08T21:50:22;2.70;99.90
21267;DHT22;10791;53.108;18.326;2023-10-08T21:55:29;2.60;99.90
21267;DHT22;10791;53.108;18.326;2023-10-08T22:00:39;2.50;99.90
21267;DHT22;10791;53.108;18.326;2023-10-08T22:06:01;2.40;99.90
21267;DHT22;10791;53.108;18.326;2023-10-08T22:11:10;2.30;99.90
21267;DHT22;10791;53.108;18.326;2023-10-08T22:16:22;2.30;99.90
21267;DHT22;10791;53.108;18.326;2023-10-08T22:21:26;2.10;99.90
21267;DHT22;10791;53.108;18.326;2023-10-08T22:26:34;2.10;99.90
21267;DHT22;10791;53.108;18.326;2023-10-08T22:31:39;2.00;99.90
21267;DHT22;10791;53.108;18.326;2023-10-08T22:36:47;2.10;99.90
21267;DHT22;10791;53.108;18.326;2023-10-08T22:41:50;2.10;99.90
21267;DHT22;10791;53.108;18.326;2023-10-08T22:47:06;2.10;99.90
21267;DHT22;10791;53.108;18.326;2023-10-08T22:52:26;2.10;99.90
21267;DHT22;10791;53.108;18.326;2023-10-08T22:57:32;2.00;99.90
21267;DHT22;10791;53.108;18.326;2023-10-08T23:02:36;1.90;99.90
21267;DHT22;10791;53.108;18.326;2023-10-08T23:07:41;1.90;99.90
21267;DHT22;10791;53.108;18.326;2023-10-08T23:12:44;1.90;99.90
21267;DHT22;10791;53.108;18.326;2023-10-08T23:17:49;1.80;99.90
21267;DHT22;10791;53.108;18.326;2023-10-08T23:22:53;1.80;99.90
21267;DHT22;10791;53.108;18.326;2023-10-08T23:27:57;1.80;99.90
21267;DHT22;10791;53.108;18.326;2023-10-08T23:33:00;1.80;99.90
21267;DHT22;10791;53.108;18.326;2023-10-08T23:38:09;1.70;99.90
21267;DHT22;10791;53.108;18.326;2023-10-08T23:43:21;1.70;99.90
21267;DHT22;10791;53.108;18.326;2023-10-08T23:48:25;1.70;99.90
21267;DHT22;10791;53.108;18.326;2023-10-08T23:53:32;1.80;99.90
21267;DHT22;10791;53.108;18.326;2023-10-08T23:58:37;1.80;99.90
